sensor_id;sensor_type;location;lat;lon;timestamp;pressure;altitude;pressure_sealevel;temperature;humidity
77366;BME280;66430;50.182;11.704;2023-01-24T00:01:37;96116.67;;;-3.32;64.19
77366;BME280;66430;50.182;11.704;2023-01-24T00:04:03;96113.97;;;-3.57;64.82
77366;BME280;66430;50.182;11.704;2023-01-24T00:06:28;96113.40;;;-3.44;64.65
77366;BME280;66430;50.182;11.704;2023-01-24T00:08:53;96116.71;;;-3.37;63.87
77366;BME280;66430;50.182;11.704;2023-01-24T00:11:19;96114.79;;;-3.33;64.35
77366;BME280;66430;50.182;11.704;2023-01-24T00:13:45;96118.25;;;-3.43;64.67
77366;BME280;66430;50.182;11.704;2023-01-24T00:16:13;96120.52;;;-3.22;64.28
77366;BME280;66430;50.182;11.704;2023-01-24T00:18:35;96123.10;;;-3.31;63.63
77366;BME280;66430;50.182;11.704;2023-01-24T00:21:02;96116.82;;;-2.95;63.45
77366;BME280;66430;50.182;11.704;2023-01-24T00:23:26;96122.89;;;-3.98;64.65
77366;BME280;66430;50.182;11.704;2023-01-24T00:25:51;96118.47;;;-3.45;64.69
77366;BME280;66430;50.182;11.704;2023-01-24T00:28:22;96121.25;;;-3.49;64.70
77366;BME280;66430;50.182;11.704;2023-01-24T00:30:42;96118.22;;;-3.58;64.45
77366;BME280;66430;50.182;11.704;2023-01-24T00:33:07;96123.92;;;-3.71;64.66
77366;BME280;66430;50.182;11.704;2023-01-24T00:35:33;96126.73;;;-3.55;64.28
77366;BME280;66430;50.182;11.704;2023-01-24T00:37:58;96125.17;;;-3.61;65.18
77366;BME280;66430;50.182;11.704;2023-01-24T00:40:23;96123.48;;;-3.57;64.58
77366;BME280;66430;50.182;11.704;2023-01-24T00:42:48;96133.32;;;-3.41;64.55
77366;BME280;66430;50.182;11.704;2023-01-24T00:45:14;96123.62;;;-3.74;65.39
77366;BME280;66430;50.182;11.704;2023-01-24T00:47:40;96122.57;;;-3.75;65.65
77366;BME280;66430;50.182;11.704;2023-01-24T00:50:06;96133.59;;;-3.71;65.62
77366;BME280;66430;50.182;11.704;2023-01-24T00:52:30;96122.57;;;-3.34;64.83
77366;BME280;66430;50.182;11.704;2023-01-24T00:54:55;96138.50;;;-3.50;64.92
77366;BME280;66430;50.182;11.704;2023-01-24T00:57:21;96142.91;;;-3.26;64.51
77366;BME280;66430;50.182;11.704;2023-01-24T00:59:46;96135.46;;;-3.10;63.50
77366;BME280;66430;50.182;11.704;2023-01-24T01:02:12;96135.03;;;-3.53;63.66
77366;BME280;66430;50.182;11.704;2023-01-24T01:04:37;96141.13;;;-3.34;64.70
77366;BME280;66430;50.182;11.704;2023-01-24T01:07:03;96136.91;;;-3.35;63.61
77366;BME280;66430;50.182;11.704;2023-01-24T01:09:28;96151.36;;;-3.12;63.94
77366;BME280;66430;50.182;11.704;2023-01-24T01:11:53;96154.25;;;-3.50;64.38
77366;BME280;66430;50.182;11.704;2023-01-24T01:14:18;96151.23;;;-3.80;64.50
77366;BME280;66430;50.182;11.704;2023-01-24T01:16:45;96153.65;;;-3.29;64.48
77366;BME280;66430;50.182;11.704;2023-01-24T01:19:09;96150.97;;;-3.26;63.31
77366;BME280;66430;50.182;11.704;2023-01-24T01:21:35;96147.44;;;-3.05;63.11
77366;BME280;66430;50.182;11.704;2023-01-24T01:24:00;96156.52;;;-3.50;64.21
77366;BME280;66430;50.182;11.704;2023-01-24T01:26:25;96153.36;;;-3.51;64.35
77366;BME280;66430;50.182;11.704;2023-01-24T01:28:51;96149.31;;;-3.20;64.21
77366;BME280;66430;50.182;11.704;2023-01-24T01:31:17;96156.96;;;-3.30;64.54
77366;BME280;66430;50.182;11.704;2023-01-24T01:33:43;96158.74;;;-3.31;64.68
77366;BME280;66430;50.182;11.704;2023-01-24T01:36:08;96171.03;;;-3.47;64.94
77366;BME280;66430;50.182;11.704;2023-01-24T01:38:33;96170.24;;;-3.11;64.11
77366;BME280;66430;50.182;11.704;2023-01-24T01:40:59;96167.81;;;-3.21;64.43
77366;BME280;66430;50.182;11.704;2023-01-24T01:43:25;96175.96;;;-3.30;64.02
77366;BME280;66430;50.182;11.704;2023-01-24T01:45:51;96175.11;;;-3.84;65.66
77366;BME280;66430;50.182;11.704;2023-01-24T01:48:21;96174.22;;;-4.01;66.45
77366;BME280;66430;50.182;11.704;2023-01-24T01:50:44;96181.78;;;-4.17;66.49
77366;BME280;66430;50.182;11.704;2023-01-24T01:53:11;96164.45;;;-4.02;66.97
77366;BME280;66430;50.182;11.704;2023-01-24T01:55:35;96173.03;;;-3.90;66.80
77366;BME280;66430;50.182;11.704;2023-01-24T01:57:57;96171.71;;;-3.99;67.12
77366;BME280;66430;50.182;11.704;2023-01-24T02:00:22;96169.74;;;-4.39;67.94
77366;BME280;66430;50.182;11.704;2023-01-24T02:02:50;96177.39;;;-4.24;68.45
77366;BME280;66430;50.182;11.704;2023-01-24T02:05:20;96179.44;;;-4.35;67.51
77366;BME280;66430;50.182;11.704;2023-01-24T02:07:43;96168.64;;;-3.82;67.27
77366;BME280;66430;50.182;11.704;2023-01-24T02:10:13;96168.66;;;-3.89;66.35
77366;BME280;66430;50.182;11.704;2023-01-24T02:12:32;96168.87;;;-3.69;65.17
77366;BME280;66430;50.182;11.704;2023-01-24T02:14:58;96161.01;;;-3.61;65.50
77366;BME280;66430;50.182;11.704;2023-01-24T02:17:21;96174.90;;;-3.86;65.46
77366;BME280;66430;50.182;11.704;2023-01-24T02:19:57;96176.14;;;-3.67;64.95
77366;BME280;66430;50.182;11.704;2023-01-24T02:22:15;96173.88;;;-3.91;65.61
77366;BME280;66430;50.182;11.704;2023-01-24T02:24:40;96170.16;;;-3.65;64.99
77366;BME280;66430;50.182;11.704;2023-01-24T02:27:01;96177.75;;;-3.31;64.04
77366;BME280;66430;50.182;11.704;2023-01-24T02:29:26;96169.46;;;-3.52;64.34
77366;BME280;66430;50.182;11.704;2023-01-24T02:31:55;96184.83;;;-3.42;64.11
77366;BME280;66430;50.182;11.704;2023-01-24T02:34:17;96187.47;;;-3.52;64.92
77366;BME280;66430;50.182;11.704;2023-01-24T02:36:52;96177.16;;;-3.49;63.90
77366;BME280;66430;50.182;11.704;2023-01-24T02:39:11;96197.70;;;-3.13;63.30
77366;BME280;66430;50.182;11.704;2023-01-24T02:41:43;96181.39;;;-3.38;63.78
77366;BME280;66430;50.182;11.704;2023-01-24T02:44:04;96184.81;;;-3.27;64.29
77366;BME280;66430;50.182;11.704;2023-01-24T02:46:29;96184.71;;;-3.20;63.98
77366;BME280;66430;50.182;11.704;2023-01-24T02:48:50;96181.38;;;-3.32;64.27
77366;BME280;66430;50.182;11.704;2023-01-24T02:51:15;96172.45;;;-3.23;63.56
77366;BME280;66430;50.182;11.704;2023-01-24T02:53:41;96173.56;;;-3.37;63.86
77366;BME280;66430;50.182;11.704;2023-01-24T02:56:09;96175.14;;;-3.11;63.06
77366;BME280;66430;50.182;11.704;2023-01-24T02:58:35;96184.31;;;-3.34;63.43
77366;BME280;66430;50.182;11.704;2023-01-24T03:00:58;96180.77;;;-3.41;63.80
77366;BME280;66430;50.182;11.704;2023-01-24T03:03:28;96182.50;;;-3.27;62.83
77366;BME280;66430;50.182;11.704;2023-01-24T03:05:49;96194.65;;;-2.75;61.50
77366;BME280;66430;50.182;11.704;2023-01-24T03:08:14;96190.24;;;-2.68;60.78
77366;BME280;66430;50.182;11.704;2023-01-24T03:10:39;96194.11;;;-2.37;60.42
77366;BME280;66430;50.182;11.704;2023-01-24T03:13:05;96197.26;;;-2.83;60.29
77366;BME280;66430;50.182;11.704;2023-01-24T03:15:30;96185.21;;;-2.83;60.21
77366;BME280;66430;50.182;11.704;2023-01-24T03:17:58;96185.73;;;-2.71;60.95
77366;BME280;66430;50.182;11.704;2023-01-24T03:20:23;96182.77;;;-2.83;60.82
77366;BME280;66430;50.182;11.704;2023-01-24T03:22:50;96185.76;;;-2.93;61.27
77366;BME280;66430;50.182;11.704;2023-01-24T03:25:13;96181.73;;;-2.90;61.96
77366;BME280;66430;50.182;11.704;2023-01-24T03:27:42;96176.10;;;-3.36;62.29
77366;BME280;66430;50.182;11.704;2023-01-24T03:30:09;96185.12;;;-3.22;62.59
77366;BME280;66430;50.182;11.704;2023-01-24T03:32:29;96172.94;;;-3.23;62.06
77366;BME280;66430;50.182;11.704;2023-01-24T03:34:54;96174.88;;;-2.98;62.06
77366;BME280;66430;50.182;11.704;2023-01-24T03:37:21;96181.26;;;-3.02;61.51
77366;BME280;66430;50.182;11.704;2023-01-24T03:39:50;96178.42;;;-3.08;61.65
77366;BME280;66430;50.182;11.704;2023-01-24T03:42:10;96174.87;;;-2.91;61.20
77366;BME280;66430;50.182;11.704;2023-01-24T03:44:35;96178.45;;;-2.91;61.21
77366;BME280;66430;50.182;11.704;2023-01-24T03:47:01;96176.76;;;-2.80;60.83
77366;BME280;66430;50.182;11.704;2023-01-24T03:49:27;96183.27;;;-2.54;60.31
77366;BME280;66430;50.182;11.704;2023-01-24T03:51:57;96177.17;;;-2.70;59.98
77366;BME280;66430;50.182;11.704;2023-01-24T03:54:18;96168.20;;;-3.18;60.81
77366;BME280;66430;50.182;11.704;2023-01-24T03:56:43;96172.18;;;-2.88;60.44
77366;BME280;66430;50.182;11.704;2023-01-24T03:59:08;96169.53;;;-2.89;60.91
77366;BME280;66430;50.182;11.704;2023-01-24T04:01:34;96167.15;;;-2.37;59.98
77366;BME280;66430;50.182;11.704;2023-01-24T04:04:07;96171.81;;;-2.67;59.37
77366;BME280;66430;50.182;11.704;2023-01-24T04:06:30;96169.41;;;-2.09;59.17
77366;BME280;66430;50.182;11.704;2023-01-24T04:08:57;96161.74;;;-2.13;59.15
77366;BME280;66430;50.182;11.704;2023-01-24T04:11:16;96172.80;;;-2.38;58.47
77366;BME280;66430;50.182;11.704;2023-01-24T04:13:42;96173.31;;;-2.12;57.92
77366;BME280;66430;50.182;11.704;2023-01-24T04:16:07;96175.21;;;-2.12;57.84
77366;BME280;66430;50.182;11.704;2023-01-24T04:18:31;96181.16;;;-2.43;58.42
77366;BME280;66430;50.182;11.704;2023-01-24T04:21:00;96177.55;;;-2.79;59.35
77366;BME280;66430;50.182;11.704;2023-01-24T04:23:23;96179.47;;;-2.44;59.78
77366;BME280;66430;50.182;11.704;2023-01-24T04:25:52;96184.86;;;-2.15;59.32
77366;BME280;66430;50.182;11.704;2023-01-24T04:28:12;96179.30;;;-2.56;59.99
77366;BME280;66430;50.182;11.704;2023-01-24T04:30:38;96180.94;;;-2.47;60.02
77366;BME280;66430;50.182;11.704;2023-01-24T04:33:04;96183.15;;;-2.58;60.10
77366;BME280;66430;50.182;11.704;2023-01-24T04:35:29;96177.94;;;-2.52;59.84
77366;BME280;66430;50.182;11.704;2023-01-24T04:37:58;96180.48;;;-2.37;59.68
77366;BME280;66430;50.182;11.704;2023-01-24T04:40:25;96174.23;;;-2.89;59.80
77366;BME280;66430;50.182;11.704;2023-01-24T04:42:45;96176.26;;;-2.73;59.36
77366;BME280;66430;50.182;11.704;2023-01-24T04:45:11;96178.99;;;-2.58;59.50
77366;BME280;66430;50.182;11.704;2023-01-24T04:47:36;96187.93;;;-2.67;59.70
77366;BME280;66430;50.182;11.704;2023-01-24T04:50:03;96182.40;;;-2.82;60.03
77366;BME280;66430;50.182;11.704;2023-01-24T04:52:40;96188.11;;;-2.51;60.08
77366;BME280;66430;50.182;11.704;2023-01-24T04:54:52;96182.28;;;-2.76;60.40
77366;BME280;66430;50.182;11.704;2023-01-24T04:57:18;96184.63;;;-2.86;60.15
77366;BME280;66430;50.182;11.704;2023-01-24T04:59:42;96188.95;;;-2.73;60.24
77366;BME280;66430;50.182;11.704;2023-01-24T05:02:09;96185.43;;;-2.45;59.71
77366;BME280;66430;50.182;11.704;2023-01-24T05:04:34;96191.74;;;-2.18;59.00
77366;BME280;66430;50.182;11.704;2023-01-24T05:07:00;96186.61;;;-2.13;58.99
77366;BME280;66430;50.182;11.704;2023-01-24T05:09:25;96186.30;;;-2.29;58.28
77366;BME280;66430;50.182;11.704;2023-01-24T05:11:51;96185.80;;;-2.20;57.90
77366;BME280;66430;50.182;11.704;2023-01-24T05:14:25;96191.79;;;-2.26;57.87
77366;BME280;66430;50.182;11.704;2023-01-24T05:16:47;96187.28;;;-2.24;58.43
77366;BME280;66430;50.182;11.704;2023-01-24T05:19:07;96189.16;;;-2.30;58.00
77366;BME280;66430;50.182;11.704;2023-01-24T05:21:32;96193.38;;;-1.97;57.85
77366;BME280;66430;50.182;11.704;2023-01-24T05:24:00;96189.13;;;-2.34;58.05
77366;BME280;66430;50.182;11.704;2023-01-24T05:26:25;96189.27;;;-2.18;57.77
77366;BME280;66430;50.182;11.704;2023-01-24T05:28:48;96191.30;;;-2.37;58.13
77366;BME280;66430;50.182;11.704;2023-01-24T05:31:13;96191.45;;;-2.35;57.98
77366;BME280;66430;50.182;11.704;2023-01-24T05:33:39;96186.83;;;-2.16;57.71
77366;BME280;66430;50.182;11.704;2023-01-24T05:36:07;96188.05;;;-2.02;57.35
77366;BME280;66430;50.182;11.704;2023-01-24T05:38:30;96182.46;;;-2.34;57.91
77366;BME280;66430;50.182;11.704;2023-01-24T05:40:59;96183.30;;;-2.40;58.03
77366;BME280;66430;50.182;11.704;2023-01-24T05:43:20;96186.45;;;-2.47;58.10
77366;BME280;66430;50.182;11.704;2023-01-24T05:45:46;96183.60;;;-2.56;58.84
77366;BME280;66430;50.182;11.704;2023-01-24T05:48:12;96186.25;;;-2.15;58.72
77366;BME280;66430;50.182;11.704;2023-01-24T05:50:37;96185.58;;;-2.49;58.76
77366;BME280;66430;50.182;11.704;2023-01-24T05:53:03;96188.69;;;-2.56;59.06
77366;BME280;66430;50.182;11.704;2023-01-24T05:55:29;96193.14;;;-2.55;59.51
77366;BME280;66430;50.182;11.704;2023-01-24T05:57:54;96193.35;;;-2.68;59.81
77366;BME280;66430;50.182;11.704;2023-01-24T06:00:21;96200.68;;;-2.72;59.84
77366;BME280;66430;50.182;11.704;2023-01-24T06:02:45;96192.01;;;-2.60;59.73
77366;BME280;66430;50.182;11.704;2023-01-24T06:05:11;96197.90;;;-2.52;59.52
77366;BME280;66430;50.182;11.704;2023-01-24T06:07:37;96199.98;;;-3.00;59.94
77366;BME280;66430;50.182;11.704;2023-01-24T06:10:05;96203.58;;;-2.70;59.85
77366;BME280;66430;50.182;11.704;2023-01-24T06:12:28;96208.39;;;-2.80;59.52
77366;BME280;66430;50.182;11.704;2023-01-24T06:14:53;96208.40;;;-2.64;59.66
77366;BME280;66430;50.182;11.704;2023-01-24T06:17:18;96210.78;;;-2.26;58.83
77366;BME280;66430;50.182;11.704;2023-01-24T06:19:44;96213.51;;;-2.87;58.83
77366;BME280;66430;50.182;11.704;2023-01-24T06:22:17;96205.84;;;-2.66;58.55
77366;BME280;66430;50.182;11.704;2023-01-24T06:24:35;96209.50;;;-2.66;58.37
77366;BME280;66430;50.182;11.704;2023-01-24T06:27:00;96215.87;;;-2.58;58.98
77366;BME280;66430;50.182;11.704;2023-01-24T06:29:26;96215.61;;;-2.49;58.15
77366;BME280;66430;50.182;11.704;2023-01-24T06:32:01;96210.68;;;-2.18;57.43
77366;BME280;66430;50.182;11.704;2023-01-24T06:34:25;96214.31;;;-1.91;56.52
77366;BME280;66430;50.182;11.704;2023-01-24T06:36:50;96219.07;;;-1.77;56.37
77366;BME280;66430;50.182;11.704;2023-01-24T06:39:12;96219.57;;;-1.69;56.01
77366;BME280;66430;50.182;11.704;2023-01-24T06:41:33;96225.04;;;-1.90;56.36
77366;BME280;66430;50.182;11.704;2023-01-24T06:43:57;96224.61;;;-1.81;55.71
77366;BME280;66430;50.182;11.704;2023-01-24T06:46:22;96223.42;;;-1.99;56.36
77366;BME280;66430;50.182;11.704;2023-01-24T06:48:47;96222.35;;;-2.08;56.82
77366;BME280;66430;50.182;11.704;2023-01-24T06:51:13;96228.52;;;-2.00;56.68
77366;BME280;66430;50.182;11.704;2023-01-24T06:53:37;96221.33;;;-2.25;57.11
77366;BME280;66430;50.182;11.704;2023-01-24T06:56:03;96224.76;;;-1.83;56.86
77366;BME280;66430;50.182;11.704;2023-01-24T06:58:28;96228.80;;;-2.20;57.08
77366;BME280;66430;50.182;11.704;2023-01-24T07:00:53;96231.96;;;-1.83;56.28
77366;BME280;66430;50.182;11.704;2023-01-24T07:03:18;96234.37;;;-2.00;56.57
77366;BME280;66430;50.182;11.704;2023-01-24T07:05:43;96235.18;;;-2.02;56.50
77366;BME280;66430;50.182;11.704;2023-01-24T07:08:09;96243.51;;;-1.38;54.73
77366;BME280;66430;50.182;11.704;2023-01-24T07:10:35;96238.65;;;-1.80;55.30
77366;BME280;66430;50.182;11.704;2023-01-24T07:13:00;96242.92;;;-1.82;55.22
77366;BME280;66430;50.182;11.704;2023-01-24T07:15:26;96239.52;;;-1.95;55.39
77366;BME280;66430;50.182;11.704;2023-01-24T07:17:51;96245.85;;;-1.91;55.02
77366;BME280;66430;50.182;11.704;2023-01-24T07:20:17;96238.77;;;-1.73;54.46
77366;BME280;66430;50.182;11.704;2023-01-24T07:22:43;96246.06;;;-1.21;54.23
77366;BME280;66430;50.182;11.704;2023-01-24T07:25:12;96250.58;;;-2.20;55.28
77366;BME280;66430;50.182;11.704;2023-01-24T07:27:32;96253.10;;;-1.42;54.77
77366;BME280;66430;50.182;11.704;2023-01-24T07:29:57;96256.92;;;-1.75;54.51
77366;BME280;66430;50.182;11.704;2023-01-24T07:32:23;96264.38;;;-1.45;54.36
77366;BME280;66430;50.182;11.704;2023-01-24T07:34:48;96259.12;;;-2.00;55.36
77366;BME280;66430;50.182;11.704;2023-01-24T07:37:13;96257.85;;;-2.10;57.13
77366;BME280;66430;50.182;11.704;2023-01-24T07:39:38;96259.81;;;-2.73;57.77
77366;BME280;66430;50.182;11.704;2023-01-24T07:42:04;96257.81;;;-2.52;58.33
77366;BME280;66430;50.182;11.704;2023-01-24T07:44:29;96259.57;;;-2.52;58.47
77366;BME280;66430;50.182;11.704;2023-01-24T07:46:54;96261.70;;;-2.65;59.24
77366;BME280;66430;50.182;11.704;2023-01-24T07:49:20;96262.92;;;-3.01;59.73
77366;BME280;66430;50.182;11.704;2023-01-24T07:51:45;96264.72;;;-2.94;59.65
77366;BME280;66430;50.182;11.704;2023-01-24T07:54:11;96267.65;;;-2.80;58.83
77366;BME280;66430;50.182;11.704;2023-01-24T07:56:37;96272.99;;;-2.55;58.82
77366;BME280;66430;50.182;11.704;2023-01-24T07:59:02;96273.04;;;-2.28;58.38
77366;BME280;66430;50.182;11.704;2023-01-24T08:01:28;96273.43;;;-2.55;58.90
77366;BME280;66430;50.182;11.704;2023-01-24T08:03:54;96276.61;;;-2.81;59.49
77366;BME280;66430;50.182;11.704;2023-01-24T08:06:18;96276.47;;;-2.59;59.02
77366;BME280;66430;50.182;11.704;2023-01-24T08:08:44;96281.78;;;-2.65;58.68
77366;BME280;66430;50.182;11.704;2023-01-24T08:11:09;96275.85;;;-2.45;57.57
77366;BME280;66430;50.182;11.704;2023-01-24T08:13:37;96275.94;;;-2.30;57.71
77366;BME280;66430;50.182;11.704;2023-01-24T08:16:01;96280.94;;;-2.52;57.94
77366;BME280;66430;50.182;11.704;2023-01-24T08:18:25;96286.09;;;-2.45;58.12
77366;BME280;66430;50.182;11.704;2023-01-24T08:20:54;96281.05;;;-2.24;58.37
77366;BME280;66430;50.182;11.704;2023-01-24T08:23:16;96285.05;;;-2.36;58.01
77366;BME280;66430;50.182;11.704;2023-01-24T08:25:42;96279.60;;;-2.23;58.33
77366;BME280;66430;50.182;11.704;2023-01-24T08:28:10;96279.41;;;-2.02;57.86
77366;BME280;66430;50.182;11.704;2023-01-24T08:30:33;96280.34;;;-2.10;57.79
77366;BME280;66430;50.182;11.704;2023-01-24T08:33:00;96281.98;;;-2.07;57.28
77366;BME280;66430;50.182;11.704;2023-01-24T08:35:24;96282.53;;;-2.24;57.01
77366;BME280;66430;50.182;11.704;2023-01-24T08:37:50;96285.35;;;-2.25;57.91
77366;BME280;66430;50.182;11.704;2023-01-24T08:40:15;96289.88;;;-2.06;57.39
77366;BME280;66430;50.182;11.704;2023-01-24T08:42:40;96285.65;;;-1.69;56.99
77366;BME280;66430;50.182;11.704;2023-01-24T08:45:07;96286.68;;;-1.98;57.07
77366;BME280;66430;50.182;11.704;2023-01-24T08:47:31;96289.08;;;-1.83;56.80
77366;BME280;66430;50.182;11.704;2023-01-24T08:49:57;96295.63;;;-1.76;56.58
77366;BME280;66430;50.182;11.704;2023-01-24T08:52:23;96293.26;;;-1.80;56.67
77366;BME280;66430;50.182;11.704;2023-01-24T08:54:48;96290.97;;;-1.84;56.91
77366;BME280;66430;50.182;11.704;2023-01-24T08:57:13;96291.78;;;-1.63;56.33
77366;BME280;66430;50.182;11.704;2023-01-24T08:59:40;96304.84;;;-1.36;55.83
77366;BME280;66430;50.182;11.704;2023-01-24T09:02:06;96304.26;;;-0.90;54.98
77366;BME280;66430;50.182;11.704;2023-01-24T09:04:31;96301.71;;;-1.39;54.59
77366;BME280;66430;50.182;11.704;2023-01-24T09:06:55;96307.92;;;-1.14;54.19
77366;BME280;66430;50.182;11.704;2023-01-24T09:09:22;96315.34;;;-0.81;53.76
77366;BME280;66430;50.182;11.704;2023-01-24T09:11:46;96311.48;;;-0.17;52.37
77366;BME280;66430;50.182;11.704;2023-01-24T09:14:12;96316.12;;;-0.19;52.19
77366;BME280;66430;50.182;11.704;2023-01-24T09:16:37;96317.43;;;-0.51;51.94
77366;BME280;66430;50.182;11.704;2023-01-24T09:19:02;96322.19;;;-0.68;52.31
77366;BME280;66430;50.182;11.704;2023-01-24T09:21:28;96329.84;;;-0.54;52.98
77366;BME280;66430;50.182;11.704;2023-01-24T09:23:54;96330.76;;;-1.16;54.29
77366;BME280;66430;50.182;11.704;2023-01-24T09:26:20;96333.13;;;-0.80;53.94
77366;BME280;66430;50.182;11.704;2023-01-24T09:28:45;96338.73;;;-1.39;54.77
77366;BME280;66430;50.182;11.704;2023-01-24T09:31:10;96338.34;;;-1.02;54.17
77366;BME280;66430;50.182;11.704;2023-01-24T09:33:36;96341.84;;;-0.77;53.70
77366;BME280;66430;50.182;11.704;2023-01-24T09:36:03;96337.33;;;-0.73;53.18
77366;BME280;66430;50.182;11.704;2023-01-24T09:38:29;96339.24;;;-0.17;52.25
77366;BME280;66430;50.182;11.704;2023-01-24T09:41:00;96351.94;;;-0.27;51.72
77366;BME280;66430;50.182;11.704;2023-01-24T09:43:35;96351.04;;;-0.01;51.46
77366;BME280;66430;50.182;11.704;2023-01-24T09:45:49;96353.69;;;-0.06;51.17
77366;BME280;66430;50.182;11.704;2023-01-24T09:48:12;96352.23;;;0.15;50.91
77366;BME280;66430;50.182;11.704;2023-01-24T09:50:40;96352.78;;;0.52;50.35
77366;BME280;66430;50.182;11.704;2023-01-24T09:52:59;96346.65;;;-0.20;50.90
77366;BME280;66430;50.182;11.704;2023-01-24T09:55:27;96350.16;;;0.02;51.03
77366;BME280;66430;50.182;11.704;2023-01-24T09:57:55;96358.37;;;0.40;50.25
77366;BME280;66430;50.182;11.704;2023-01-24T10:00:17;96356.09;;;0.23;50.19
77366;BME280;66430;50.182;11.704;2023-01-24T10:02:40;96363.32;;;0.59;49.65
77366;BME280;66430;50.182;11.704;2023-01-24T10:05:12;96366.27;;;0.44;49.26
77366;BME280;66430;50.182;11.704;2023-01-24T10:10:05;96352.47;;;0.63;48.88
77366;BME280;66430;50.182;11.704;2023-01-24T10:12:34;96349.28;;;0.76;48.79
77366;BME280;66430;50.182;11.704;2023-01-24T10:14:55;96343.45;;;0.71;49.11
77366;BME280;66430;50.182;11.704;2023-01-24T10:17:23;96344.39;;;0.75;49.61
77366;BME280;66430;50.182;11.704;2023-01-24T10:19:48;96344.19;;;0.54;50.05
77366;BME280;66430;50.182;11.704;2023-01-24T10:22:13;96338.24;;;0.01;50.32
77366;BME280;66430;50.182;11.704;2023-01-24T10:24:31;96336.38;;;0.25;50.06
77366;BME280;66430;50.182;11.704;2023-01-24T10:26:54;96336.14;;;0.58;50.21
77366;BME280;66430;50.182;11.704;2023-01-24T10:29:21;96331.92;;;0.28;50.64
77366;BME280;66430;50.182;11.704;2023-01-24T10:31:52;96329.76;;;0.37;50.09
77366;BME280;66430;50.182;11.704;2023-01-24T10:34:12;96327.25;;;0.47;49.80
77366;BME280;66430;50.182;11.704;2023-01-24T10:36:46;96330.22;;;0.22;49.77
77366;BME280;66430;50.182;11.704;2023-01-24T10:39:01;96320.81;;;0.06;50.97
77366;BME280;66430;50.182;11.704;2023-01-24T10:41:30;96320.81;;;0.20;50.94
77366;BME280;66430;50.182;11.704;2023-01-24T10:43:58;96319.42;;;0.09;51.20
77366;BME280;66430;50.182;11.704;2023-01-24T10:46:30;96315.00;;;-0.01;51.52
77366;BME280;66430;50.182;11.704;2023-01-24T10:48:45;96312.49;;;-0.15;51.97
77366;BME280;66430;50.182;11.704;2023-01-24T10:51:14;96309.77;;;0.00;51.62
77366;BME280;66430;50.182;11.704;2023-01-24T10:53:33;96311.73;;;-0.34;52.31
77366;BME280;66430;50.182;11.704;2023-01-24T10:56:00;96308.35;;;-0.53;52.84
77366;BME280;66430;50.182;11.704;2023-01-24T10:58:25;96305.58;;;-0.32;52.60
77366;BME280;66430;50.182;11.704;2023-01-24T11:00:56;96306.04;;;-0.33;53.44
77366;BME280;66430;50.182;11.704;2023-01-24T11:03:19;96303.42;;;-0.57;53.95
77366;BME280;66430;50.182;11.704;2023-01-24T11:05:44;96300.13;;;-0.84;54.28
77366;BME280;66430;50.182;11.704;2023-01-24T11:08:15;96296.17;;;-0.48;53.13
77366;BME280;66430;50.182;11.704;2023-01-24T11:10:36;96290.04;;;-0.45;53.03
77366;BME280;66430;50.182;11.704;2023-01-24T11:12:58;96289.32;;;-0.19;52.44
77366;BME280;66430;50.182;11.704;2023-01-24T11:15:25;96287.09;;;0.03;52.00
77366;BME280;66430;50.182;11.704;2023-01-24T11:17:53;96287.37;;;-0.02;52.09
77366;BME280;66430;50.182;11.704;2023-01-24T11:20:26;96289.15;;;-0.12;51.74
77366;BME280;66430;50.182;11.704;2023-01-24T11:22:39;96292.43;;;-0.01;52.12
77366;BME280;66430;50.182;11.704;2023-01-24T11:25:14;96288.10;;;-0.34;53.18
77366;BME280;66430;50.182;11.704;2023-01-24T11:27:29;96293.60;;;-0.22;52.65
77366;BME280;66430;50.182;11.704;2023-01-24T11:30:05;96289.91;;;-0.61;53.25
77366;BME280;66430;50.182;11.704;2023-01-24T11:32:26;96293.45;;;-0.42;54.01
77366;BME280;66430;50.182;11.704;2023-01-24T11:34:49;96284.21;;;-0.38;53.07
77366;BME280;66430;50.182;11.704;2023-01-24T11:37:26;96279.95;;;0.07;52.94
77366;BME280;66430;50.182;11.704;2023-01-24T11:39:44;96284.23;;;0.12;52.86
77366;BME280;66430;50.182;11.704;2023-01-24T11:42:06;96282.45;;;0.08;52.24
77366;BME280;66430;50.182;11.704;2023-01-24T11:44:35;96281.71;;;-0.03;52.41
77366;BME280;66430;50.182;11.704;2023-01-24T11:46:56;96281.93;;;-0.11;52.13
77366;BME280;66430;50.182;11.704;2023-01-24T11:49:28;96282.73;;;0.07;51.56
77366;BME280;66430;50.182;11.704;2023-01-24T11:51:49;96277.19;;;0.33;51.62
77366;BME280;66430;50.182;11.704;2023-01-24T11:54:26;96278.39;;;0.16;51.38
77366;BME280;66430;50.182;11.704;2023-01-24T11:56:39;96278.07;;;0.06;51.84
77366;BME280;66430;50.182;11.704;2023-01-24T11:59:16;96282.67;;;-0.02;52.09
77366;BME280;66430;50.182;11.704;2023-01-24T12:01:31;96277.87;;;-0.44;52.72
77366;BME280;66430;50.182;11.704;2023-01-24T12:06:28;96273.13;;;0.37;51.41
77366;BME280;66430;50.182;11.704;2023-01-24T12:08:50;96269.94;;;0.44;50.82
77366;BME280;66430;50.182;11.704;2023-01-24T12:11:10;96274.38;;;0.35;50.59
77366;BME280;66430;50.182;11.704;2023-01-24T12:13:39;96272.27;;;0.39;50.67
77366;BME280;66430;50.182;11.704;2023-01-24T12:16:04;96279.25;;;0.59;50.59
77366;BME280;66430;50.182;11.704;2023-01-24T12:18:33;96280.39;;;0.03;51.36
77366;BME280;66430;50.182;11.704;2023-01-24T12:20:57;96274.71;;;0.17;52.38
77366;BME280;66430;50.182;11.704;2023-01-24T12:23:20;96266.16;;;-0.12;52.75
77366;BME280;66430;50.182;11.704;2023-01-24T12:25:41;96269.46;;;-0.28;52.45
77366;BME280;66430;50.182;11.704;2023-01-24T12:28:06;96268.05;;;0.08;52.42
77366;BME280;66430;50.182;11.704;2023-01-24T12:30:32;96263.70;;;-0.22;52.63
77366;BME280;66430;50.182;11.704;2023-01-24T12:33:01;96269.45;;;-0.09;52.32
77366;BME280;66430;50.182;11.704;2023-01-24T12:35:25;96265.41;;;-0.07;51.38
77366;BME280;66430;50.182;11.704;2023-01-24T12:37:51;96265.01;;;0.22;51.32
77366;BME280;66430;50.182;11.704;2023-01-24T12:40:20;96273.39;;;-0.01;51.17
77366;BME280;66430;50.182;11.704;2023-01-24T12:42:46;96264.38;;;0.16;50.95
77366;BME280;66430;50.182;11.704;2023-01-24T12:45:11;96263.76;;;0.54;50.13